Terminal Aerodrome Forecast
Issued by NWS Missoula, MT

Home | Current Version | Previous Version | Text Only | Print | Product List | Glossary On
Versions: 1 2 3 4 5 6 7 8 9 10 11 12 13 14 15 16
606
FTUS45 KMSO 090520
TAFGPI
TAF
KGPI 090520Z 0906/1006 01015KT P6SM BKN150
     FM091200 02006KT P6SM VCSH OVC050
     FM091500 02007KT P6SM -SN BKN025 OVC040
     FM092000 VRB05KT P6SM VCSH OVC050=

USA.gov is the U.S. government's official web portal to all federal, state and local government web resources and services.